createdAt,value
2018-01-16T00:01:26.854Z,1.90
2018-01-16T00:03:30.224Z,1.80
2018-01-16T00:05:33.559Z,1.47
2018-01-16T00:07:36.875Z,1.70
2018-01-16T00:09:40.238Z,1.90
2018-01-16T00:11:43.564Z,2.10
2018-01-16T00:13:47.065Z,2.00
2018-01-16T00:15:50.384Z,2.47
2018-01-16T00:17:53.697Z,2.20
2018-01-16T00:19:57.102Z,2.43
2018-01-16T00:22:00.411Z,2.20
2018-01-16T00:24:03.791Z,2.23
2018-01-16T00:26:07.878Z,2.27
2018-01-16T00:28:11.976Z,1.60
2018-01-16T00:30:16.119Z,1.90
2018-01-16T00:32:19.466Z,1.60
2018-01-16T00:34:22.770Z,1.73
2018-01-16T00:36:26.855Z,1.63
2018-01-16T00:38:30.178Z,1.37
2018-01-16T00:40:34.443Z,1.63
2018-01-16T00:42:37.778Z,1.57
2018-01-16T00:44:41.107Z,1.63
2018-01-16T00:46:44.471Z,1.70
2018-01-16T00:48:47.802Z,2.77
2018-01-16T00:50:51.109Z,2.13
2018-01-16T00:52:54.492Z,1.73
2018-01-16T00:54:57.929Z,1.90
2018-01-16T00:57:02.043Z,1.83
2018-01-16T00:59:06.131Z,2.17
2018-01-16T01:01:09.437Z,2.10
2018-01-16T01:03:12.738Z,1.73
2018-01-16T01:05:16.054Z,3.03
2018-01-16T01:07:19.368Z,2.00
2018-01-16T01:09:22.675Z,1.77
2018-01-16T01:11:26.012Z,2.03
2018-01-16T01:13:29.337Z,1.80
2018-01-16T01:15:32.666Z,2.23
2018-01-16T01:17:36.741Z,1.60
2018-01-16T01:19:40.133Z,3.13
2018-01-16T01:21:44.366Z,2.00
2018-01-16T01:23:47.694Z,2.27
2018-01-16T01:25:51.713Z,3.00
2018-01-16T01:27:55.103Z,2.57
2018-01-16T01:29:58.445Z,2.63
2018-01-16T01:32:01.777Z,2.30
2018-01-16T01:34:05.088Z,1.73
2018-01-16T01:36:08.418Z,1.80
2018-01-16T01:38:12.520Z,2.67
2018-01-16T01:40:15.839Z,2.80
2018-01-16T01:42:19.199Z,2.00
2018-01-16T01:44:22.597Z,2.20
2018-01-16T01:46:25.926Z,1.60
2018-01-16T01:48:29.367Z,2.10
2018-01-16T01:50:32.714Z,1.60
2018-01-16T01:52:36.045Z,2.27
2018-01-16T01:54:39.357Z,1.80
2018-01-16T01:56:42.708Z,2.20
2018-01-16T01:58:46.101Z,1.87
2018-01-16T02:00:49.429Z,1.87
2018-01-16T02:02:53.578Z,2.10
2018-01-16T02:04:57.733Z,1.67
2018-01-16T02:07:01.807Z,2.00
2018-01-16T02:09:05.245Z,2.30
2018-01-16T02:11:09.148Z,2.20
2018-01-16T02:13:12.487Z,1.93
2018-01-16T02:15:16.638Z,1.53
2018-01-16T02:17:20.016Z,2.10
2018-01-16T02:19:23.374Z,1.80
2018-01-16T02:21:26.690Z,1.67
2018-01-16T02:23:30.006Z,2.23
2018-01-16T02:25:33.602Z,2.80
2018-01-16T02:27:36.962Z,1.87
2018-01-16T02:29:40.325Z,2.30
2018-01-16T02:31:44.397Z,1.93
2018-01-16T02:33:47.711Z,2.20
2018-01-16T02:35:51.798Z,2.13
2018-01-16T02:37:55.102Z,1.77
2018-01-16T02:39:58.403Z,1.87
2018-01-16T02:42:01.711Z,2.50
2018-01-16T02:44:05.781Z,2.37
2018-01-16T02:46:09.088Z,2.70
2018-01-16T02:48:12.419Z,2.40
2018-01-16T02:50:15.751Z,1.90
2018-01-16T02:52:19.075Z,1.90
2018-01-16T02:54:24.595Z,2.00
2018-01-16T02:56:27.948Z,2.27
2018-01-16T02:58:32.066Z,2.20
2018-01-16T03:00:35.805Z,2.57
2018-01-16T03:02:40.265Z,2.00
2018-01-16T03:04:43.583Z,2.30
2018-01-16T03:06:46.956Z,1.77
2018-01-16T03:08:50.274Z,1.90
2018-01-16T03:10:53.582Z,2.50
2018-01-16T03:12:57.677Z,3.43
2018-01-16T03:15:00.983Z,1.77
2018-01-16T03:17:04.304Z,2.10
2018-01-16T03:19:09.294Z,2.23
2018-01-16T03:21:15.032Z,2.00
2018-01-16T03:23:19.358Z,2.20
2018-01-16T03:25:22.695Z,1.87
2018-01-16T03:27:26.038Z,1.83
2018-01-16T03:29:30.254Z,1.77
2018-01-16T03:31:33.571Z,1.87
2018-01-16T03:33:37.655Z,2.00
2018-01-16T03:35:41.025Z,2.30
2018-01-16T03:37:44.331Z,2.10
2018-01-16T03:39:47.682Z,1.57
2018-01-16T03:41:50.997Z,1.80
2018-01-16T03:43:54.315Z,2.10
2018-01-16T03:45:57.633Z,1.30
2018-01-16T03:48:00.942Z,1.60
2018-01-16T03:50:04.314Z,1.80
2018-01-16T03:52:07.681Z,1.40
2018-01-16T03:54:10.985Z,1.77
2018-01-16T03:56:15.067Z,2.10
2018-01-16T03:58:18.376Z,2.60
2018-01-16T04:00:21.697Z,2.40
2018-01-16T04:02:25.043Z,5.97
2018-01-16T04:04:29.710Z,4.17
2018-01-16T04:06:33.054Z,2.57
2018-01-16T04:08:36.361Z,1.67
2018-01-16T04:10:40.199Z,1.97
2018-01-16T04:12:43.547Z,3.17
2018-01-16T04:14:46.836Z,2.57
2018-01-16T04:16:50.976Z,2.33
2018-01-16T04:18:54.281Z,1.90
2018-01-16T04:20:57.577Z,2.07
2018-01-16T04:23:00.888Z,1.97
2018-01-16T04:25:04.189Z,2.30
2018-01-16T04:27:07.508Z,2.53
2018-01-16T04:29:10.825Z,2.30
2018-01-16T04:31:14.146Z,1.80
2018-01-16T04:33:17.488Z,1.50
2018-01-16T04:35:21.580Z,2.37
2018-01-16T04:37:24.902Z,1.70
2018-01-16T04:39:28.234Z,2.00
2018-01-16T04:41:32.071Z,2.00
2018-01-16T04:43:35.414Z,1.70
2018-01-16T04:45:39.058Z,1.60
2018-01-16T04:47:43.140Z,1.87
2018-01-16T04:49:46.516Z,1.60
2018-01-16T04:51:49.822Z,1.60
2018-01-16T04:53:53.156Z,1.43
2018-01-16T04:55:57.239Z,1.60
2018-01-16T04:58:00.584Z,1.60
2018-01-16T05:00:03.952Z,1.67
2018-01-16T05:02:07.283Z,1.40
2018-01-16T05:04:10.636Z,1.60
2018-01-16T05:06:14.134Z,1.73
2018-01-16T05:08:17.640Z,1.73
2018-01-16T05:10:21.204Z,1.90
2018-01-16T05:12:24.646Z,1.30
2018-01-16T05:14:28.112Z,2.03
2018-01-16T05:16:31.547Z,1.70
2018-01-16T05:18:35.051Z,1.60
2018-01-16T05:20:38.540Z,1.70
2018-01-16T05:22:41.944Z,1.47
2018-01-16T05:24:45.408Z,1.77
2018-01-16T05:26:48.829Z,2.10
2018-01-16T05:28:52.275Z,2.20
2018-01-16T05:30:55.661Z,1.73
2018-01-16T05:32:59.188Z,1.83
2018-01-16T05:35:02.603Z,1.60
2018-01-16T05:37:06.856Z,1.90
2018-01-16T05:39:10.313Z,2.00
2018-01-16T05:41:14.501Z,2.00
2018-01-16T05:43:17.899Z,1.60
2018-01-16T05:45:21.270Z,1.70
2018-01-16T05:47:24.716Z,2.00
2018-01-16T05:49:29.220Z,1.70
2018-01-16T05:51:32.645Z,1.60
2018-01-16T05:53:36.760Z,1.90
2018-01-16T05:55:40.915Z,1.80
2018-01-16T05:57:44.326Z,1.23
2018-01-16T05:59:48.580Z,1.50
2018-01-16T06:01:52.225Z,1.50
2018-01-16T06:03:55.679Z,1.80
2018-01-16T06:05:59.706Z,1.37
2018-01-16T06:08:03.247Z,2.03
2018-01-16T06:10:07.377Z,1.40
2018-01-16T06:12:13.344Z,1.90
2018-01-16T06:14:16.734Z,1.30
2018-01-16T06:16:20.078Z,1.90
2018-01-16T06:18:23.418Z,1.43
2018-01-16T06:20:26.732Z,1.63
2018-01-16T06:22:32.878Z,1.50
2018-01-16T06:24:45.640Z,1.90
2018-01-16T06:26:51.264Z,1.70
2018-01-16T06:28:55.419Z,1.60
2018-01-16T06:31:00.061Z,1.10
2018-01-16T06:33:05.584Z,1.60
2018-01-16T06:35:09.781Z,1.10
2018-01-16T06:37:13.247Z,1.27
2018-01-16T06:39:16.671Z,1.40
2018-01-16T06:41:20.808Z,1.50
2018-01-16T06:43:24.955Z,1.60
2018-01-16T06:45:28.291Z,1.63
2018-01-16T06:47:32.401Z,1.40
2018-01-16T06:49:35.765Z,1.50
2018-01-16T06:51:41.016Z,1.60
2018-01-16T06:53:45.145Z,1.47
2018-01-16T06:55:48.495Z,1.80
2018-01-16T06:57:52.158Z,1.20
2018-01-16T06:59:55.913Z,1.40
2018-01-16T07:01:59.360Z,1.70
2018-01-16T07:04:03.370Z,1.23
2018-01-16T07:06:06.884Z,1.50
2018-01-16T07:08:10.273Z,1.23
2018-01-16T07:10:13.690Z,1.20
2018-01-16T07:12:17.082Z,1.27
2018-01-16T07:14:21.315Z,1.37
2018-01-16T07:16:25.006Z,1.70
2018-01-16T07:18:28.481Z,1.67
2018-01-16T07:20:32.606Z,2.10
2018-01-16T07:22:35.980Z,2.47
2018-01-16T07:24:42.104Z,1.30
2018-01-16T07:26:45.507Z,1.60
2018-01-16T07:28:51.393Z,1.70
2018-01-16T07:30:54.869Z,1.90
2018-01-16T07:32:58.207Z,1.50
2018-01-16T07:35:01.581Z,1.47
2018-01-16T07:37:05.055Z,2.60
2018-01-16T07:39:09.217Z,3.00
2018-01-16T07:41:12.819Z,3.97
2018-01-16T07:43:16.179Z,3.50
2018-01-16T07:45:20.378Z,4.20
2018-01-16T07:47:23.672Z,4.00
2018-01-16T07:49:27.768Z,4.43
2018-01-16T07:51:31.932Z,1.70
2018-01-16T07:53:35.342Z,2.47
2018-01-16T07:55:38.718Z,1.90
2018-01-16T07:57:42.828Z,1.70
2018-01-16T07:59:46.172Z,1.30
2018-01-16T08:01:50.372Z,2.87
2018-01-16T08:03:54.564Z,3.10
2018-01-16T08:05:57.916Z,2.27
2018-01-16T08:08:01.341Z,2.00
2018-01-16T08:10:04.741Z,1.90
2018-01-16T08:12:09.940Z,2.63
2018-01-16T08:14:13.271Z,2.83
2018-01-16T08:16:16.661Z,1.97
2018-01-16T08:18:20.071Z,2.30
2018-01-16T08:20:24.353Z,1.50
2018-01-16T08:22:27.969Z,2.13
2018-01-16T08:24:33.710Z,2.10
2018-01-16T08:26:37.124Z,2.07
2018-01-16T08:28:41.312Z,2.37
2018-01-16T08:30:44.704Z,2.13
2018-01-16T08:32:48.213Z,2.20
2018-01-16T08:34:51.585Z,2.20
2018-01-16T08:36:55.245Z,1.70
2018-01-16T08:38:59.505Z,2.17
2018-01-16T08:41:02.901Z,2.10
2018-01-16T08:43:07.113Z,2.20
2018-01-16T08:45:10.517Z,2.23
2018-01-16T08:47:13.885Z,2.50
2018-01-16T08:49:17.351Z,2.73
2018-01-16T08:51:20.684Z,3.00
2018-01-16T08:53:24.040Z,2.47
2018-01-16T08:55:28.247Z,2.90
2018-01-16T08:57:31.569Z,2.47
2018-01-16T08:59:34.867Z,2.33
2018-01-16T09:01:38.278Z,3.70
2018-01-16T09:03:41.708Z,2.07
2018-01-16T09:05:45.074Z,3.70
2018-01-16T09:07:49.239Z,2.47
2018-01-16T09:09:52.582Z,2.50
2018-01-16T09:11:56.730Z,2.80
2018-01-16T09:14:00.171Z,3.13
2018-01-16T09:16:04.370Z,2.80
2018-01-16T09:18:08.635Z,2.33
2018-01-16T09:20:12.028Z,2.00
2018-01-16T09:22:15.446Z,2.80
2018-01-16T09:24:18.781Z,2.90
2018-01-16T09:26:22.172Z,3.17
2018-01-16T09:28:26.293Z,3.17
2018-01-16T09:30:29.680Z,2.37
2018-01-16T09:32:33.866Z,3.40
2018-01-16T09:34:38.033Z,4.20
2018-01-16T09:36:41.428Z,3.77
2018-01-16T09:38:44.790Z,8.30
2018-01-16T09:40:49.009Z,3.03
2018-01-16T09:42:53.478Z,2.87
2018-01-16T09:44:56.888Z,2.77
2018-01-16T09:47:00.852Z,2.60
2018-01-16T09:49:04.301Z,4.30
2018-01-16T09:51:09.305Z,2.47
2018-01-16T09:53:13.562Z,2.77
2018-01-16T09:55:16.951Z,2.47
2018-01-16T09:57:20.474Z,2.73
2018-01-16T09:59:24.566Z,2.97
2018-01-16T10:01:27.927Z,1.77
2018-01-16T10:03:32.079Z,2.20
2018-01-16T10:05:35.515Z,3.67
2018-01-16T10:07:39.779Z,2.63
2018-01-16T10:09:43.425Z,4.07
2018-01-16T10:11:47.575Z,2.60
2018-01-16T10:13:51.021Z,4.80
2018-01-16T10:15:54.985Z,3.33
2018-01-16T10:17:59.327Z,3.57
2018-01-16T10:20:03.560Z,3.70
2018-01-16T10:22:08.775Z,2.40
2018-01-16T10:24:12.229Z,2.50
2018-01-16T10:26:16.476Z,2.57
2018-01-16T10:28:19.840Z,2.00
2018-01-16T10:30:24.009Z,1.63
2018-01-16T10:32:27.393Z,1.80
2018-01-16T10:34:30.761Z,1.90
2018-01-16T10:36:34.161Z,1.43
2018-01-16T10:38:37.584Z,1.40
2018-01-16T10:40:41.100Z,1.40
2018-01-16T10:42:44.449Z,2.20
2018-01-16T10:44:47.925Z,4.23
2018-01-16T10:46:51.301Z,1.80
2018-01-16T10:48:54.650Z,3.63
2018-01-16T10:50:58.090Z,2.80
2018-01-16T10:53:01.498Z,1.43
2018-01-16T10:55:04.909Z,2.30
2018-01-16T10:57:08.233Z,1.90
2018-01-16T10:59:11.711Z,2.00
2018-01-16T11:01:15.074Z,1.57
2018-01-16T11:03:18.488Z,1.30
2018-01-16T11:05:21.855Z,1.60
2018-01-16T11:07:25.204Z,1.63
2018-01-16T11:09:30.330Z,2.27
2018-01-16T11:11:33.851Z,1.50
2018-01-16T11:13:37.426Z,1.73
2018-01-16T11:15:40.846Z,1.60
2018-01-16T11:17:45.126Z,3.20
2018-01-16T11:19:48.520Z,3.10
2018-01-16T11:21:54.422Z,1.90
2018-01-16T11:23:57.768Z,2.90
2018-01-16T11:26:01.132Z,1.57
2018-01-16T11:28:04.585Z,1.37
2018-01-16T11:30:08.768Z,1.60
2018-01-16T11:32:12.972Z,1.70
2018-01-16T11:34:17.138Z,1.70
2018-01-16T11:36:20.486Z,1.30
2018-01-16T11:38:25.255Z,1.40
2018-01-16T11:40:29.649Z,1.50
2018-01-16T11:42:33.130Z,1.53
2018-01-16T11:44:36.600Z,1.37
2018-01-16T11:46:40.065Z,1.40
2018-01-16T11:48:44.997Z,1.50
2018-01-16T11:50:48.942Z,1.40
2018-01-16T11:52:53.215Z,1.60
2018-01-16T11:54:56.665Z,1.80
2018-01-16T11:57:00.877Z,1.73
2018-01-16T11:59:04.258Z,1.57
2018-01-16T12:01:08.620Z,1.53
2018-01-16T12:03:12.732Z,1.70
2018-01-16T12:05:16.170Z,2.03
2018-01-16T12:07:19.580Z,2.13
2018-01-16T12:09:22.953Z,2.17
2018-01-16T12:11:26.310Z,2.57
2018-01-16T12:13:30.497Z,2.47
2018-01-16T12:15:33.859Z,2.27
2018-01-16T12:17:37.421Z,2.90
2018-01-16T12:19:40.864Z,2.13
2018-01-16T12:21:45.148Z,3.00
2018-01-16T12:23:48.560Z,2.90
2018-01-16T12:25:52.043Z,3.60
2018-01-16T12:27:56.846Z,3.10
2018-01-16T12:30:00.305Z,3.60
2018-01-16T12:32:03.788Z,3.63
2018-01-16T12:34:07.234Z,2.87
2018-01-16T12:36:11.394Z,1.93
2018-01-16T12:38:15.563Z,3.20
2018-01-16T12:40:19.713Z,2.90
2018-01-16T12:42:23.190Z,2.70
2018-01-16T12:44:26.545Z,2.70
2018-01-16T12:46:30.038Z,2.70
2018-01-16T12:48:33.436Z,2.30
2018-01-16T12:50:37.641Z,2.10
2018-01-16T12:52:41.906Z,2.47
2018-01-16T12:54:45.286Z,3.13
2018-01-16T12:56:49.445Z,3.50
2018-01-16T12:58:52.811Z,3.30
2018-01-16T13:00:56.230Z,1.83
2018-01-16T13:02:59.569Z,2.50
2018-01-16T13:05:03.097Z,3.17
2018-01-16T13:07:08.438Z,2.03
2018-01-16T13:09:12.694Z,2.00
2018-01-16T13:11:16.098Z,2.30
2018-01-16T13:13:20.340Z,2.20
2018-01-16T13:15:24.059Z,2.10
2018-01-16T13:17:27.386Z,2.70
2018-01-16T13:19:31.498Z,2.93
2018-01-16T13:21:35.635Z,2.07
2018-01-16T13:23:39.012Z,4.97
2018-01-16T13:25:43.133Z,4.50
2018-01-16T13:27:46.538Z,3.07
2018-01-16T13:29:49.978Z,2.20
2018-01-16T13:31:54.770Z,2.37
2018-01-16T13:33:58.164Z,3.17
2018-01-16T13:36:01.627Z,2.10
2018-01-16T13:38:06.025Z,2.67
2018-01-16T13:40:10.235Z,3.90
2018-01-16T13:42:16.185Z,3.00
2018-01-16T13:44:20.353Z,3.20
2018-01-16T13:46:23.799Z,3.30
2018-01-16T13:48:29.568Z,2.40
2018-01-16T13:50:33.047Z,2.80
2018-01-16T13:52:36.777Z,2.90
2018-01-16T13:54:40.969Z,3.13
2018-01-16T13:56:44.303Z,2.63
2018-01-16T13:58:48.118Z,3.20
2018-01-16T14:00:52.869Z,2.90
2018-01-16T14:02:56.389Z,3.73
2018-01-16T14:04:59.721Z,2.70
2018-01-16T14:07:03.045Z,2.20
2018-01-16T14:09:06.556Z,2.13
2018-01-16T14:11:09.909Z,2.67
2018-01-16T14:13:13.325Z,2.20
2018-01-16T14:15:17.405Z,2.37
2018-01-16T14:17:20.728Z,2.70
2018-01-16T14:19:24.893Z,2.97
2018-01-16T14:21:28.197Z,2.60
2018-01-16T14:23:32.370Z,3.40
2018-01-16T14:25:36.473Z,2.60
2018-01-16T14:27:39.818Z,2.20
2018-01-16T14:29:43.952Z,2.47
2018-01-16T14:31:47.324Z,2.57
2018-01-16T14:33:50.777Z,3.63
2018-01-16T14:35:54.104Z,2.80
2018-01-16T14:37:57.444Z,2.50
2018-01-16T14:40:00.788Z,3.40
2018-01-16T14:42:04.104Z,3.00
2018-01-16T14:44:07.469Z,3.63
2018-01-16T14:46:11.583Z,2.20
2018-01-16T14:48:14.922Z,2.53
2018-01-16T14:50:18.339Z,2.43
2018-01-16T14:52:21.654Z,2.23
2018-01-16T14:54:25.779Z,2.90
2018-01-16T14:56:29.886Z,3.10
2018-01-16T14:58:34.017Z,3.70
2018-01-16T15:00:37.375Z,4.00
2018-01-16T15:02:41.501Z,2.90
2018-01-16T15:04:45.607Z,2.80
2018-01-16T15:06:48.965Z,3.03
2018-01-16T15:08:52.313Z,2.07
2018-01-16T15:10:57.515Z,2.83
2018-01-16T15:13:02.771Z,2.30
2018-01-16T15:15:06.902Z,3.70
2018-01-16T15:17:10.293Z,2.50
2018-01-16T15:19:14.952Z,2.70
2018-01-16T15:21:18.395Z,1.80
2018-01-16T15:23:21.711Z,2.03
2018-01-16T15:25:26.197Z,2.10
2018-01-16T15:27:30.015Z,2.67
2018-01-16T15:29:34.584Z,1.90
2018-01-16T15:31:39.595Z,2.17
2018-01-16T15:33:43.017Z,1.60
2018-01-16T15:35:49.844Z,2.00
2018-01-16T15:37:54.191Z,1.73
2018-01-16T15:39:57.570Z,2.70
2018-01-16T15:42:01.070Z,1.97
2018-01-16T15:44:06.077Z,2.30
2018-01-16T15:46:09.470Z,1.60
2018-01-16T15:48:15.631Z,2.20
2018-01-16T15:50:19.878Z,1.53
2018-01-16T15:52:24.450Z,2.07
2018-01-16T15:54:28.917Z,1.93
2018-01-16T15:56:32.659Z,2.37
2018-01-16T15:58:36.124Z,1.77
2018-01-16T16:00:40.312Z,2.57
2018-01-16T16:02:44.542Z,2.03
2018-01-16T16:04:50.367Z,1.73
2018-01-16T16:06:54.726Z,2.53
2018-01-16T16:08:58.965Z,1.60
2018-01-16T16:11:04.326Z,2.03
2018-01-16T16:13:08.578Z,2.60
2018-01-16T16:15:12.043Z,2.10
2018-01-16T16:17:15.392Z,3.03
2018-01-16T16:20:00.230Z,2.67
2018-01-16T16:22:04.415Z,1.87
2018-01-16T16:24:08.582Z,3.57
2018-01-16T16:26:12.174Z,2.20
2018-01-16T16:28:15.774Z,8.00
2018-01-16T16:30:19.201Z,2.23
2018-01-16T16:32:22.637Z,3.23
2018-01-16T16:34:26.155Z,2.00
2018-01-16T16:36:29.498Z,1.80
2018-01-16T16:38:33.862Z,2.63
2018-01-16T16:40:37.323Z,3.80
2018-01-16T16:42:41.464Z,3.80
2018-01-16T16:44:46.700Z,3.47
2018-01-16T16:46:50.063Z,1.90
2018-01-16T16:48:54.457Z,4.10
2018-01-16T16:50:58.778Z,3.73
2018-01-16T16:53:03.013Z,2.70
2018-01-16T16:55:07.487Z,2.93
2018-01-16T16:57:10.997Z,3.37
2018-01-16T16:59:14.610Z,4.57
2018-01-16T17:01:18.159Z,5.43
2018-01-16T17:03:23.714Z,6.57
2018-01-16T17:05:27.215Z,4.90
2018-01-16T17:07:30.988Z,2.80
2018-01-16T17:09:34.600Z,3.70
2018-01-16T17:11:39.005Z,3.07
2018-01-16T17:13:42.728Z,2.50
2018-01-16T17:15:47.208Z,5.50
2018-01-16T17:17:51.168Z,3.63
2018-01-16T17:19:54.821Z,3.40
2018-01-16T17:21:58.314Z,2.57
2018-01-16T17:24:01.856Z,2.90
2018-01-16T17:26:05.340Z,3.03
2018-01-16T17:28:08.715Z,3.67
2018-01-16T17:30:14.426Z,2.70
2018-01-16T17:32:19.121Z,3.30
2018-01-16T17:34:22.711Z,4.03
2018-01-16T17:36:26.073Z,3.00
2018-01-16T17:38:29.473Z,3.07
2018-01-16T17:40:32.829Z,4.23
2018-01-16T17:42:36.438Z,2.50
2018-01-16T17:44:40.123Z,3.20
2018-01-16T17:46:43.480Z,2.50
2018-01-16T17:48:47.478Z,2.83
2018-01-16T17:50:51.692Z,1.70
2018-01-16T17:52:55.097Z,2.97
2018-01-16T17:54:58.938Z,2.90
2018-01-16T17:57:02.686Z,2.97
2018-01-16T17:59:07.151Z,2.90
2018-01-16T18:01:11.191Z,2.90
2018-01-16T18:03:14.762Z,2.60
2018-01-16T18:05:18.389Z,2.47
2018-01-16T18:07:21.770Z,2.07
2018-01-16T18:09:25.939Z,2.03
2018-01-16T18:11:29.289Z,2.30
2018-01-16T18:13:33.457Z,2.43
2018-01-16T18:15:37.411Z,1.87
2018-01-16T18:17:41.912Z,2.63
2018-01-16T18:19:45.802Z,1.90
2018-01-16T18:21:50.416Z,2.23
2018-01-16T18:23:54.058Z,2.07
2018-01-16T18:25:58.586Z,1.70
2018-01-16T18:28:02.880Z,1.63
2018-01-16T18:30:07.212Z,2.20
2018-01-16T18:32:11.696Z,3.57
2018-01-16T18:34:15.893Z,3.70
2018-01-16T18:36:20.887Z,3.60
2018-01-16T18:38:26.585Z,2.27
2018-01-16T18:40:30.883Z,2.07
2018-01-16T18:42:34.343Z,1.80
2018-01-16T18:44:38.667Z,1.97
2018-01-16T18:46:42.036Z,2.17
2018-01-16T18:48:46.965Z,4.97
2018-01-16T18:50:51.870Z,2.90
2018-01-16T18:52:57.764Z,3.20
2018-01-16T18:55:02.141Z,2.40
2018-01-16T18:57:06.335Z,2.13
2018-01-16T18:59:09.820Z,3.87
2018-01-16T19:01:13.231Z,4.50
2018-01-16T19:03:17.911Z,4.00
2018-01-16T19:05:23.376Z,4.30
2018-01-16T19:07:28.111Z,3.77
2018-01-16T19:09:32.644Z,3.23
2018-01-16T19:11:36.123Z,3.27
2018-01-16T19:13:41.064Z,3.80
2018-01-16T19:15:44.558Z,3.50
2018-01-16T19:17:51.139Z,3.50
2018-01-16T19:19:54.646Z,2.80
2018-01-16T19:21:58.100Z,2.90
2018-01-16T19:24:01.550Z,2.73
2018-01-16T19:26:05.738Z,4.00
2018-01-16T19:28:10.140Z,3.37
2018-01-16T19:30:13.562Z,3.47
2018-01-16T19:32:17.745Z,3.47
2018-01-16T19:34:21.760Z,2.20
2018-01-16T19:36:25.783Z,3.07
2018-01-16T19:38:31.494Z,2.83
2018-01-16T19:40:37.031Z,2.17
2018-01-16T19:42:40.456Z,3.00
2018-01-16T19:44:44.746Z,2.60
2018-01-16T19:46:48.268Z,3.83
2018-01-16T19:48:51.864Z,2.90
2018-01-16T19:50:55.252Z,2.30
2018-01-16T19:52:59.548Z,2.33
2018-01-16T19:55:03.015Z,2.03
2018-01-16T19:57:06.402Z,2.20
2018-01-16T19:59:10.554Z,1.67
2018-01-16T20:01:15.444Z,1.83
2018-01-16T20:03:19.257Z,2.23
2018-01-16T20:05:23.212Z,2.13
2018-01-16T20:07:27.222Z,1.67
2018-01-16T20:09:30.734Z,2.63
2018-01-16T20:11:36.937Z,2.20
2018-01-16T20:13:42.446Z,2.70
2018-01-16T20:15:46.261Z,3.50
2018-01-16T20:17:49.596Z,2.70
2018-01-16T20:19:53.747Z,3.80
2018-01-16T20:21:57.107Z,3.90
2018-01-16T20:24:08.124Z,4.00
2018-01-16T20:26:12.327Z,3.10
2018-01-16T20:28:15.724Z,3.27
2018-01-16T20:30:19.908Z,3.47
2018-01-16T20:32:24.720Z,3.37
2018-01-16T20:34:28.593Z,2.23
2018-01-16T20:36:33.248Z,2.67
2018-01-16T20:38:37.979Z,3.47
2018-01-16T20:40:43.952Z,3.53
2018-01-16T20:42:48.326Z,3.40
2018-01-16T20:44:52.845Z,3.27
2018-01-16T20:46:56.191Z,4.80
2018-01-16T20:48:59.501Z,4.57
2018-01-16T20:51:03.668Z,3.90
2018-01-16T20:53:07.724Z,4.30
2018-01-16T20:55:16.457Z,2.60
2018-01-16T20:57:20.092Z,2.80
2018-01-16T20:59:23.424Z,2.97
2018-01-16T21:01:28.438Z,2.77
2018-01-16T21:03:31.745Z,3.70
2018-01-16T21:05:35.087Z,3.40
2018-01-16T21:07:39.180Z,5.83
2018-01-16T21:09:42.532Z,3.40
2018-01-16T21:11:46.048Z,3.20
2018-01-16T21:13:49.383Z,2.87
2018-01-16T21:15:52.745Z,4.63
2018-01-16T21:17:56.064Z,5.03
2018-01-16T21:19:59.389Z,4.33
2018-01-16T21:22:02.714Z,4.77
2018-01-16T21:24:06.031Z,5.30
2018-01-16T21:26:09.395Z,5.70
2018-01-16T21:28:12.707Z,4.10
2018-01-16T21:30:16.029Z,6.10
2018-01-16T21:32:20.927Z,6.67
2018-01-16T21:34:25.008Z,5.97
2018-01-16T21:36:28.430Z,4.20
2018-01-16T21:38:31.762Z,6.20
2018-01-16T21:40:35.082Z,4.90
2018-01-16T21:42:39.584Z,3.73
2018-01-16T21:44:43.337Z,4.40
2018-01-16T21:46:47.541Z,3.83
2018-01-16T21:48:51.626Z,4.93
2018-01-16T21:50:54.947Z,3.93
2018-01-16T21:52:58.273Z,4.30
2018-01-16T21:55:01.630Z,3.63
2018-01-16T21:57:04.992Z,5.03
2018-01-16T21:59:08.317Z,4.20
2018-01-16T22:01:11.682Z,3.57
2018-01-16T22:03:15.815Z,3.83
2018-01-16T22:05:19.152Z,4.00
2018-01-16T22:07:22.508Z,4.73
2018-01-16T22:09:25.812Z,3.00
2018-01-16T22:11:29.139Z,2.90
2018-01-16T22:13:32.450Z,2.70
2018-01-16T22:15:36.532Z,3.23
2018-01-16T22:17:39.905Z,4.20
2018-01-16T22:19:43.215Z,4.00
2018-01-16T22:21:46.537Z,3.80
2018-01-16T22:23:49.887Z,2.90
2018-01-16T22:25:53.218Z,4.33
2018-01-16T22:27:56.621Z,3.10
2018-01-16T22:30:00.048Z,3.00
2018-01-16T22:32:03.387Z,3.10
2018-01-16T22:34:06.993Z,3.30
2018-01-16T22:36:10.361Z,3.00
2018-01-16T22:38:13.807Z,2.70
2018-01-16T22:40:17.148Z,2.70
2018-01-16T22:42:20.571Z,3.30
2018-01-16T22:44:24.640Z,2.93
2018-01-16T22:46:28.027Z,3.57
2018-01-16T22:48:31.468Z,2.70
2018-01-16T22:50:34.861Z,3.27
2018-01-16T22:52:38.182Z,3.20
2018-01-16T22:54:41.544Z,2.80
2018-01-16T22:56:44.865Z,2.90
2018-01-16T22:58:48.192Z,3.03
2018-01-16T23:00:51.520Z,2.90
2018-01-16T23:02:54.881Z,3.10
2018-01-16T23:04:58.207Z,2.43
2018-01-16T23:07:01.544Z,3.93
2018-01-16T23:09:04.918Z,3.03
2018-01-16T23:11:08.239Z,2.63
2018-01-16T23:13:11.602Z,3.10
2018-01-16T23:15:14.925Z,2.50
2018-01-16T23:17:19.472Z,2.60
2018-01-16T23:19:23.582Z,2.23
2018-01-16T23:21:26.941Z,2.13
2018-01-16T23:23:30.276Z,2.23
2018-01-16T23:25:33.619Z,2.17
2018-01-16T23:27:36.920Z,3.07
2018-01-16T23:29:40.260Z,2.83
2018-01-16T23:31:43.577Z,2.37
2018-01-16T23:33:46.953Z,1.83
2018-01-16T23:35:50.277Z,2.40
2018-01-16T23:37:53.609Z,2.37
2018-01-16T23:39:56.981Z,1.90
2018-01-16T23:42:01.077Z,2.30
2018-01-16T23:44:05.192Z,2.20
2018-01-16T23:46:09.300Z,2.20
2018-01-16T23:48:12.621Z,2.10
2018-01-16T23:50:15.943Z,1.90
2018-01-16T23:52:19.916Z,3.27
2018-01-16T23:54:23.254Z,2.37
2018-01-16T23:56:26.588Z,2.00
2018-01-16T23:58:29.918Z,3.07
